LEIB/IBZ METAR and TAF weather

Enter ICAO airport designator
Station Type Date Time Source
LEIB METAR 2022/06/25 23:30 UTC NOAA

LEIB 252330Z 19006KT 160V220 CAVOK 23/20 Q1010 NOSIG


Station Type Date Time Source
LEIB Decoded METAR 2022/06/25 23:30 UTC NOAA

Ibiza / Es Codola, Spain (LEIB) 38-52N 001-23E 12M
Jun 25, 2022 - 07:30 PM EDT / 2022.06.25 2330 UTC
Wind: from the S (190 degrees) at 7 MPH (6 KT) (direction variable):0
Visibility: greater than 7 mile(s):0
Temperature: 73 F (23 C)
Dew Point: 68 F (20 C)
Relative Humidity: 83%
Pressure (altimeter): 29.83 in. Hg (1010 hPa)
ob: LEIB 252330Z 19006KT 160V220 CAVOK 23/20 Q1010 NOSIG
cycle: 23

Station Type Date Time Source
LEIB TAF 2022/06/25 21:27 UTC NOAA

TAF LEIB 252000Z 2521/2621 21010KT 9999 FEW020 TX29/2612Z TN21/2605Z
BECMG 2600/2602 VRB04KT
BECMG 2612/2614 21010KT PROB30
TEMPO 2604/2607 TS FEW080CB

Example: see airport list